Las Vegas, NV

5:56 AM PDT on March 31, 2015 (GMT -0700)
MesoWest | | Change Station
CLOSE
Current Station
Personal Weather Station
Location: Las Vegas, NV
Elevation: 2035 ft
Nearby Weather Stations

Elev 2035 ft 36.11 °N, 115.15 °W | Updated 46 minutes ago

Scattered Clouds
Scattered Clouds
65 °F
Feels Like 65 °F
N
0
Wind Variable Wind from South
Gusts 1.0 mph

Today
High -- | Low -- °F
--% Chance of Precip.
Yesterday
High -- | Low -- °F
Precip. -- in
6:28 AM 7:01 PM
Waxing Gibbous, 86% visible
Pressure 29.82 in
Visibility 10.0 miles
Clouds Scattered Clouds 25000 ft
Dew Point 29 °F
Humidity 25%
Rainfall in
Snow Depth Not available.
UV 0 out of 12
Pollen 11.80 out of 12
Air Quality Not available.
Flu Activity Not available.
METAR KLAS 311156Z 20006KT 10SM SCT250 19/M07 A2988 RMK AO2 SLP097 T01941067 10250 20183 56006

More Conditions Fewer Conditions

Pressure 29.82 in
Visibility 10.0 miles
Clouds Scattered Clouds 25000 ft
Dew Point 29 °F
Humidity 25%
Rainfall in
Snow Depth Not available.
UV 0 out of 12
Pollen 11.80 out of 12
Air Quality Not available.
Flu Activity Not available.
METAR KLAS 311156Z 20006KT 10SM SCT250 19/M07 A2988 RMK AO2 SLP097 T01941067 10250 20183 56006

More Conditions Fewer Conditions

10-Day Weather Forecast

Almanac

Astronomy

Mar. 31, 2015 Rise Set
Actual Time
Civil Twilight
Nautical Twilight
Astronomical Twilight
Moon
Length of Visible Light
Length of Day
Tomorrow will be .
, % of the Moon is Illuminated

Today's Extremes

State Highs State Lows

Community

WunderPhotos

Upload Photos

1,809,754 photos uploaded!

WunderBlogs® & News

Nearby

Air Quality

  Air Quality AQ Index Pollutant
Not available.

Snow Depth

Station Depth Elevation

Earthquake Activity

City Distance Mag. Time & Date
Minimum magnitude displayed is 2.5.

Coastal Water Temperatures

Place Temperature

Stations

Nearby Weather Stations

Station Location Temp. Windchill Dew Point Humidity Wind Precip. Elev Updated Type